Airfield :
LOGIN :

Register | Disclaimer

   EN    FR    IT 

 










Legend :    VFR   Marginal VFR   IFR   Intensive IFR   Very Intensive IFR
Visi :
Ceiling :
>= 8 km
>= 3000ft
5 to 8 km
1000 to 3000 ft
1500m to 5 km
500 to 1000 ft
800 to 1500m
200 to 500 ft
< 800m
< 200 ft
Symbols :   Thunderstorms  Fog  Heavy snow  Heavy precipitations  Wind > 20 kt
SIGMETs :     Misc.  Thunderstorms  Icing  Turbulence  Mountain Waves  Volcanic Ashes







- Airport Elevation : 659 ft
- IATA code : LGG


EBLG - Liège

CURRENT METAR :
  • 270250Z 31003KT 280V340 9999 FEW028 BKN048 02/M00 Q1015 NOSIG

EXPIRED METARs :
  • 270220Z 30004KT 9999 FEW028 BKN048 02/M00 Q1015 NOSIG
  • 270150Z 30003KT 230V330 9999 FEW028 BKN048 02/M00 Q1015 NOSIG
  • 270120Z 32003KT 9999 FEW028 SCT048 02/M00 Q1015 NOSIG
  • 270050Z 31004KT 9999 FEW030 02/M00 Q1015 NOSIG
  • 270020Z 30003KT 9999 FEW030 02/M00 Q1015 NOSIG

TAF TAF EBLG
Valid from the 27 at 00:00 until the 28 at 06:00 UTC


262300Z 2700/2806 31004KT 9999 SCT035
PROB30
TEMPO 2703/2707 3000 BR BKN005
PROB30
TEMPO 2711/2719 4000 SHRA
PROB30
TEMPO 2805/2806 4000 RA SHRA BKN008
No reported NOTAMs for that airfield.



MET'MAP, your aeronautical weather chart ! - Copyright ORBIFLY December 2007 - Disclaimer

ORBIFLY MET'MAP TEAM :

Programming & Development : Alexandra Zaïnal
Concept & Development : Baudouin d'Aumeries
Co-Development & Prog : Marc-Olivier Méhu
Technical & hardware support : Manuel Goepfert

Contact : metmap@orbifly.com




SOURCES & CREDITS :

   NOAA